Domov               UVHVVR             MKGP            O straneh              
ZDRAVSTVENO VARSTVO RASTLIN
  MREŽA AGROMET. POSTAJ
 ► PROGNOSTIČNA OBVESTILA
AGROMETEOROLOŠKI PODATKI -
ARSO
OBVLADOVANJE TVEGANJ ZARADI
NEUGODNIH VREMENSKIH RAZMER
  ► NARAVNE NESREČE
  ► SUŠA/MOČA
  ► NAMAKANJE
  ► ŽLED (gozdarstvo)
KARTOGRAFSKI PRIKAZI
SPLETNE POVEZAVE
PROJEKTI IN PUBLIKACIJE

AGROMETEOROLOŠKA MREŽA: VREMENSKE POSTAJE IN FENOLOŠKA OPAZOVANJA

Pregled podatkov za lokacijo Češnjevek (Cerklje), meteorološka postaja 855696

Pregled senzorjev na lokaciji

ID Ime Zadnja
vrednost
Datum
zadnje
spremembe
Tip
senzorja
3854 Padavine (mm) 0 mm 22.3.2019 23:00 Rain-O-Matic
3856 Relativna vlaga 2 m (% RH) 83,58 % RH 22.3.2019 22:59 50YA
3855 Temperatura 2 m (°C) 4,28 °C 22.3.2019 22:59 50YA

Pregled podatkov zadnjih 24 ur

Zap.
št.
Datum in čas Češnjevek (Cerklje)
Padavine Relativna
vlaga
2
m
Temperatura
2
m
1 22.3.2019 23:30
2 22.3.2019 23:00
3 22.3.2019 22:30
4 22.3.2019 22:00 0 83,6 4,3
5 22.3.2019 21:30 0 85,4 4,5
6 22.3.2019 21:00 0 85,7 4,5
7 22.3.2019 20:30 0 81,1 5,4
8 22.3.2019 20:00 0 74,1 6,9
9 22.3.2019 19:30 0 74,5 7,5
10 22.3.2019 19:00 0 65,7 9,1
11 22.3.2019 18:30 0 56 11,8
12 22.3.2019 18:00 0 46,6 13,7
13 22.3.2019 17:30 0 35,4 16,1
14 22.3.2019 17:00 0 32,8 17,1
15 22.3.2019 16:30 0 34,1 17,2
16 22.3.2019 16:00 0 37,1 16,2
17 22.3.2019 15:30 0 37,7 16,6
18 22.3.2019 15:00 0 39,6 16
19 22.3.2019 14:30 0 41 15,5
20 22.3.2019 14:00 0 42,7 15
21 22.3.2019 13:30 0 43,3 14
22 22.3.2019 13:00 0 45,7 13,3
23 22.3.2019 12:30 0 45,7 12,5
24 22.3.2019 12:00 0 45,5 11,9
25 22.3.2019 11:30 0 46,6 11,3
26 22.3.2019 11:00 0 49,2 10,5
27 22.3.2019 10:30 0 56,1 9,7
28 22.3.2019 10:00 0 65,1 8,5
29 22.3.2019 09:30 0 72 6,8
30 22.3.2019 09:00 0 76,4 5,6
31 22.3.2019 08:30 0 75,2 4,8
32 22.3.2019 08:00 0 88,8 2,7
33 22.3.2019 07:30 0 97,4 0
34 22.3.2019 07:00 0 98 -1,8
35 22.3.2019 06:30 0 98,3 -2,1
36 22.3.2019 06:00 0 98,3 -2,2
37 22.3.2019 05:30 0 98,9 -2,4
38 22.3.2019 05:00 0 98,8 -2,4
39 22.3.2019 04:30 0 98,8 -2,2
40 22.3.2019 04:00 0 98,5 -2,2
41 22.3.2019 03:30 0 98,1 -2,2
42 22.3.2019 03:00 0 97,9 -1,7
43 22.3.2019 02:30 0 97,4 -1,5
44 22.3.2019 02:00 0 96,7 -1
45 22.3.2019 01:30 0 96,7 -0,8
46 22.3.2019 01:00 0 96,1 -0,8
47 22.3.2019 00:30 0 96,4 -0,4
48 22.3.2019 00:00 0 94,3 -0,1
© 2011 Ministrstvo za kmetijstvo, gozdarstvo in prehrano. Vse pravice pridržane.